Time;durP1;ratioP1;P1;durP2;ratioP2;P2;SDS_P1;SDS_P2;PMS_P1;PMS_P2;Temp;Humidity;BMP_temperature;BMP_pressure;BME280_temperature;BME280_humidity;BME280_pressure;Samples;Min_cycle;Max_cycle;Signal;HPM_P1;HPM_P2
2022/12/26 00:01:48;;;;;;;5.80;3.95;;;;;;;0.17;56.37;101178.13;4953515;28;20043;-80
2022/12/26 00:04:15;;;;;;;9.35;4.30;;;;;;;0.20;56.23;101189.41;4950667;28;20498;-78
2022/12/26 00:06:42;;;;;;;8.15;4.35;;;;;;;0.11;56.19;101179.53;4953297;28;20090;-79
2022/12/26 00:09:08;;;;;;;6.50;4.05;;;;;;;0.14;56.45;101191.63;4969904;28;20054;-80
2022/12/26 00:11:35;;;;;;;7.13;4.40;;;;;;;0.08;56.13;101187.03;4949983;28;20046;-79
2022/12/26 00:14:09;;;;;;;9.45;4.40;;;;;;;0.15;55.94;101183.13;4920452;29;20485;-79
2022/12/26 00:16:36;;;;;;;8.13;4.60;;;;;;;-0.05;56.30;101136.84;4953791;28;20133;-78
2022/12/26 00:19:03;;;;;;;9.60;4.80;;;;;;;-0.02;55.71;101147.25;4954364;28;20043;-79
2022/12/26 00:21:29;;;;;;;7.70;4.65;;;;;;;-0.04;56.38;101142.84;4954860;28;20039;-80
2022/12/26 00:23:58;;;;;;;9.55;5.22;;;;;;;0.24;55.94;101196.47;4936503;29;20040;-80
2022/12/26 00:26:27;;;;;;;9.32;5.03;;;;;;;0.22;55.88;101187.81;4956865;28;20043;-78
2022/12/26 00:28:54;;;;;;;8.15;4.75;;;;;;;0.22;55.73;101208.28;4957350;28;20047;-78
2022/12/26 00:31:25;;;;;;;7.13;4.20;;;;;;;0.20;56.23;101194.53;4957128;28;20039;-78
2022/12/26 00:33:52;;;;;;;8.88;4.70;;;;;;;0.11;56.04;101171.00;4957512;28;20420;-80
2022/12/26 00:36:24;;;;;;;6.47;4.50;;;;;;;0.25;55.76;101205.00;4942810;28;20039;-80
2022/12/26 00:38:51;;;;;;;6.60;3.95;;;;;;;0.19;55.82;101218.38;4940321;29;20057;-81
2022/12/26 00:41:18;;;;;;;8.55;4.70;;;;;;;0.11;56.13;101210.25;4940056;29;20051;-82
2022/12/26 00:43:45;;;;;;;7.20;4.38;;;;;;;0.11;56.12;101202.56;4968072;28;20110;-80
2022/12/26 00:46:11;;;;;;;4.28;3.28;;;;;;;0.10;56.09;101212.75;4937724;29;20404;-80
2022/12/26 00:48:41;;;;;;;5.35;3.20;;;;;;;-0.05;55.28;101198.28;4920243;29;20047;-79
2022/12/26 00:51:07;;;;;;;5.05;2.80;;;;;;;0.16;56.24;101217.31;4937560;28;20432;-79
2022/12/26 00:53:33;;;;;;;5.82;3.10;;;;;;;0.12;56.10;101218.81;4956778;28;20122;-78
2022/12/26 00:55:59;;;;;;;4.13;2.70;;;;;;;0.07;55.54;101210.88;4956556;28;20675;-81
2022/12/26 00:58:25;;;;;;;4.47;2.90;;;;;;;0.11;56.10;101224.75;4936143;29;20043;-80
2022/12/26 01:00:53;;;;;;;4.47;2.65;;;;;;;0.02;55.86;101209.72;4954007;28;20508;-78
2022/12/26 01:03:19;;;;;;;5.22;2.72;;;;;;;-0.01;55.50;101199.34;4931576;29;20051;-79
2022/12/26 01:05:50;;;;;;;6.15;3.00;;;;;;;0.13;55.11;101220.56;4935640;29;20079;-81
2022/12/26 01:08:18;;;;;;;4.57;2.42;;;;;;;0.18;55.27;101229.41;4949006;28;20139;-79
2022/12/26 01:10:45;;;;;;;4.72;2.40;;;;;;;0.24;55.03;101232.31;4958062;28;20034;-80
2022/12/26 01:13:13;;;;;;;5.05;2.60;;;;;;;0.28;55.56;101246.16;4924803;29;20070;-80
2022/12/26 01:15:38;;;;;;;5.63;2.72;;;;;;;0.02;54.69;101213.97;4938131;29;20046;-80
2022/12/26 01:18:04;;;;;;;3.65;2.65;;;;;;;-0.06;54.80;101203.31;4968753;28;20118;-80
2022/12/26 01:20:32;;;;;;;4.07;2.25;;;;;;;0.14;54.88;101238.59;4936314;29;20527;-81
2022/12/26 01:22:58;;;;;;;4.63;2.40;;;;;;;0.01;55.36;101213.06;4935895;29;20040;-79
2022/12/26 01:25:25;;;;;;;4.78;2.40;;;;;;;0.15;55.02;101226.66;4967280;28;20111;-79
2022/12/26 01:27:51;;;;;;;3.30;2.25;;;;;;;-0.06;54.40;101214.41;4934853;29;20048;-81
2022/12/26 01:30:18;;;;;;;4.72;2.45;;;;;;;0.03;54.79;101220.88;4969832;28;20509;-80
2022/12/26 01:32:44;;;;;;;3.85;2.28;;;;;;;0.08;54.79;101240.81;4918732;29;20472;-80
2022/12/26 01:35:11;;;;;;;2.97;2.10;;;;;;;0.08;54.70;101232.25;4937536;29;20094;-79
2022/12/26 01:37:37;;;;;;;3.60;1.90;;;;;;;0.06;55.13;101241.53;4971200;28;20055;-78
2022/12/26 01:40:05;;;;;;;3.88;2.20;;;;;;;-0.13;54.72;101207.22;4938728;28;20134;-80
2022/12/26 01:42:38;;;;;;;5.13;3.10;;;;;;;-0.21;54.30;101190.53;4941528;29;20513;-79
2022/12/26 01:45:16;;;;;;;7.28;3.85;;;;;;;0.06;54.26;101241.53;4904857;29;20568;-80
2022/12/26 01:47:42;;;;;;;8.07;4.28;;;;;;;-0.06;53.96;101242.56;4952295;28;20078;-78
2022/12/26 01:50:30;;;;;;;5.80;3.90;;;;;;;-0.05;54.16;101244.34;4920506;29;20063;-79
2022/12/26 01:53:01;;;;;;;7.25;4.05;;;;;;;-0.04;54.48;101238.44;4968035;28;20055;-80
2022/12/26 01:55:29;;;;;;;6.78;3.95;;;;;;;-0.05;54.13;101240.91;4935324;29;20420;-79
2022/12/26 01:58:06;;;;;;;7.15;3.75;;;;;;;0.04;54.76;101248.22;4935439;29;20117;-80
2022/12/26 02:00:33;;;;;;;5.65;3.38;;;;;;;0.13;55.17;101249.63;4935131;29;20047;-79
2022/12/26 02:05:45;;;;;;;8.07;3.42;;;;;;;-0.21;54.89;101185.41;4934613;29;20083;-79
2022/12/26 02:08:16;;;;;;;6.07;3.65;;;;;;;0.06;54.11;101234.72;4951145;28;20034;-80
2022/12/26 02:10:50;;;;;;;6.35;3.70;;;;;;;-0.02;54.94;101216.38;4978608;28;20045;-81
2022/12/26 02:13:18;;;;;;;9.13;3.70;;;;;;;0.21;54.63;101244.06;4926580;28;20077;-81
2022/12/26 02:15:45;;;;;;;7.38;3.63;;;;;;;0.12;55.13;101229.94;4940042;29;20210;-79
2022/12/26 02:18:11;;;;;;;7.00;3.70;;;;;;;0.22;54.82;101248.41;4941301;29;20130;-80
2022/12/26 02:21:16;;;;;;;7.00;3.92;;;;;;;0.21;54.72;101244.94;4955260;28;20130;-80
2022/12/26 02:23:54;;;;;;;5.57;3.38;;;;;;;0.23;54.97;101242.44;4937323;29;20540;-78
2022/12/26 02:26:50;;;;;;;4.97;3.35;;;;;;;0.22;54.35;101228.78;4954563;28;20424;-81
2022/12/26 02:29:37;;;;;;;4.22;2.90;;;;;;;0.18;54.86;101224.28;4936394;28;20043;-80
2022/12/26 02:32:35;;;;;;;4.55;2.90;;;;;;;-0.05;54.87;101215.31;4936417;29;20077;-79
2022/12/26 02:35:45;;;;;;;5.10;3.00;;;;;;;0.03;54.76;101231.09;4950442;28;20130;-81
2022/12/26 02:38:59;;;;;;;5.78;2.90;;;;;;;-0.03;54.92;101236.75;4934456;28;20137;-80
2022/12/26 02:41:30;;;;;;;5.93;3.53;;;;;;;-0.52;54.68;101179.41;4914364;29;20044;-80
2022/12/26 02:47:04;;;;;;;6.63;3.58;;;;;;;-0.24;54.58;101237.28;4952823;28;20524;-81
2022/12/26 03:13:09;;;;;;;5.82;3.30;;;;;;;-0.37;55.29;101230.59;4955551;29;20078;-79
2022/12/26 03:15:21;;;;;;;12.65;6.03;;;;;;;0.06;54.48;101241.53;4953541;28;20047;-81
2022/12/26 03:17:51;;;;;;;12.85;9.77;;;;;;;0.05;55.24;101234.63;4953575;28;20043;-80
2022/12/26 03:20:26;;;;;;;8.05;5.22;;;;;;;-0.03;54.59;101223.97;4938008;29;20130;-81
2022/12/26 03:23:08;;;;;;;5.78;3.70;;;;;;;-0.02;54.78;101221.47;4965947;28;20047;-79
2022/12/26 03:28:21;;;;;;;4.97;3.40;;;;;;;-0.11;55.04;101225.19;4936926;29;20509;-80
2022/12/26 03:30:47;;;;;;;10.40;4.25;;;;;;;-0.01;54.47;101248.84;4941449;29;20067;-80
2022/12/26 03:36:03;;;;;;;8.93;4.25;;;;;;;0.08;54.79;101263.84;4934329;28;20090;-81
2022/12/26 03:39:06;;;;;;;6.63;3.85;;;;;;;0.06;54.99;101259.44;4920461;29;20039;-80
2022/12/26 04:20:34;;;;;;;8.10;4.10;;;;;;;-0.12;54.35;101246.47;4937624;29;20087;-80
2022/12/26 04:44:13;;;;;;;5.35;3.15;;;;;;;-0.41;55.18;101253.31;4928329;29;20063;-80
2022/12/26 04:46:41;;;;;;;3.60;2.30;;;;;;;-0.39;54.66;101267.06;4908668;29;20091;-80
2022/12/26 04:51:56;;;;;;;4.68;2.58;;;;;;;-0.44;55.28;101274.50;4955907;28;20475;-81
2022/12/26 04:54:23;;;;;;;5.38;3.30;;;;;;;-0.63;54.54;101249.47;4956365;28;20039;-82
2022/12/26 04:56:48;;;;;;;6.00;3.83;;;;;;;-0.69;54.92;101237.22;4919787;29;20047;-82
2022/12/26 05:11:16;;;;;;;5.82;2.50;;;;;;;-0.19;54.22;101288.72;4956522;28;20043;-82
2022/12/26 05:13:46;;;;;;;5.90;2.40;;;;;;;-0.33;54.48;101267.44;4921676;29;20087;-84
2022/12/26 05:30:04;;;;;;;5.22;3.17;;;;;;;-0.86;53.80;101271.97;4936394;29;20036;-79
2022/12/26 05:35:30;;;;;;;4.80;1.80;;;;;;;-0.79;53.88;101273.25;4924483;28;20035;-83
2022/12/26 05:38:17;;;;;;;2.60;1.45;;;;;;;-1.17;53.67;101190.00;4957238;28;20138;-81
2022/12/26 05:40:50;;;;;;;2.43;1.20;;;;;;;-1.78;53.36;101096.09;4952327;29;20055;-82
2022/12/26 05:43:40;;;;;;;2.25;1.40;;;;;;;-1.94;52.53;101109.56;4925503;29;20079;-82
2022/12/26 05:46:16;;;;;;;3.08;1.30;;;;;;;-2.18;54.01;101080.06;4922599;29;20078;-81
2022/12/26 05:48:53;;;;;;;1.73;1.23;;;;;;;-0.64;53.84;101314.19;4921189;29;20044;-82
2022/12/26 05:55:23;;;;;;;1.75;1.27;;;;;;;-1.85;53.16;101089.72;4958268;28;20113;-81
2022/12/26 05:57:52;;;;;;;2.00;1.65;;;;;;;-0.91;53.66;101235.06;4940450;29;20463;-81
2022/12/26 06:00:18;;;;;;;1.70;1.60;;;;;;;-0.39;53.62;101319.13;4975617;28;20051;-82
2022/12/26 06:02:53;;;;;;;2.78;1.77;;;;;;;-1.64;53.07;101084.19;4956519;28;20047;-80
2022/12/26 06:05:19;;;;;;;3.00;1.83;;;;;;;-0.50;53.38;101269.91;4955427;28;20126;-81
2022/12/26 06:07:45;;;;;;;8.45;3.83;;;;;;;-0.23;53.32;101314.94;4928103;28;20111;-80
2022/12/26 06:10:12;;;;;;;4.57;2.90;;;;;;;-0.37;53.25;101316.66;4975212;28;20464;-81
2022/12/26 06:12:39;;;;;;;4.90;2.55;;;;;;;-0.38;52.92;101313.22;4960212;28;20047;-82
2022/12/26 06:15:05;;;;;;;5.18;2.65;;;;;;;-0.38;53.18;101318.34;4951381;28;20059;-80
2022/12/26 06:17:55;;;;;;;3.67;2.17;;;;;;;-0.33;52.98;101321.16;4919950;29;20050;-81
2022/12/26 06:20:21;;;;;;;3.75;2.47;;;;;;;-0.50;52.71;101279.22;4932398;29;20055;-81
2022/12/26 06:22:50;;;;;;;3.55;1.88;;;;;;;-0.37;53.56;101289.41;4935276;29;20127;-84
2022/12/26 06:25:17;;;;;;;2.53;1.40;;;;;;;-0.72;52.86;101229.34;4939935;28;20080;-80
2022/12/26 06:27:43;;;;;;;3.60;2.38;;;;;;;-0.44;52.37;101304.31;4934831;29;20047;-82
2022/12/26 06:30:10;;;;;;;7.43;2.72;;;;;;;-0.66;52.83;101295.34;4968754;28;20118;-79
2022/12/26 06:32:36;;;;;;;5.78;2.65;;;;;;;-0.74;52.55;101334.91;4954967;28;20047;-80
2022/12/26 06:35:09;;;;;;;4.90;1.80;;;;;;;-0.95;53.04;101333.66;4919734;29;20039;-81
2022/12/26 06:37:35;;;;;;;2.47;1.75;;;;;;;-1.02;53.12;101310.16;4968677;28;20093;-81
2022/12/26 06:40:01;;;;;;;2.47;1.63;;;;;;;-0.96;53.00;101320.78;4938009;28;20059;-81
2022/12/26 06:42:29;;;;;;;3.47;1.60;;;;;;;-0.79;53.03;101352.50;4940984;29;20489;-82
2022/12/26 06:44:55;;;;;;;2.75;1.80;;;;;;;-0.88;53.10;101314.47;4966818;28;20134;-81
2022/12/26 06:47:21;;;;;;;3.40;1.55;;;;;;;-0.85;52.89;101329.13;4937954;29;20050;-81
2022/12/26 06:49:53;;;;;;;2.28;1.33;;;;;;;-0.65;53.74;101351.69;4954822;28;20102;-81
2022/12/26 06:52:19;;;;;;;3.75;1.75;;;;;;;-0.81;53.18;101329.41;4921073;28;20062;-79
2022/12/26 06:54:45;;;;;;;3.92;2.00;;;;;;;-0.87;52.91;101320.47;4950902;28;20036;-82
2022/12/26 06:57:10;;;;;;;3.55;1.95;;;;;;;-0.82;53.09;101308.88;4972344;28;20049;-81
2022/12/26 06:59:36;;;;;;;2.67;1.48;;;;;;;-0.42;53.47;101364.09;4944636;28;20388;-83
2022/12/26 07:02:02;;;;;;;2.70;1.83;;;;;;;-1.11;53.53;101234.72;4961937;28;20046;-82
2022/12/26 07:04:28;;;;;;;4.30;1.70;;;;;;;-0.27;53.45;101357.38;4932207;28;20483;-83
2022/12/26 07:06:57;;;;;;;4.05;1.60;;;;;;;-0.62;52.84;101284.50;4958399;28;20184;-82
2022/12/26 07:09:23;;;;;;;5.93;2.05;;;;;;;-1.52;52.71;101148.75;4955923;28;20047;-82
2022/12/26 07:11:53;;;;;;;5.60;2.15;;;;;;;-1.04;53.03;101228.31;4964783;28;20078;-82
2022/12/26 07:14:19;;;;;;;3.25;2.20;;;;;;;-1.13;51.23;101248.19;4944619;28;20448;-84
2022/12/26 07:16:45;;;;;;;4.05;2.50;;;;;;;-0.70;52.39;101337.72;4957075;28;20047;-82
2022/12/26 07:19:14;;;;;;;3.60;2.05;;;;;;;-0.70;51.97;101381.19;4939723;28;20039;-82
2022/12/26 07:21:44;;;;;;;4.57;2.10;;;;;;;-1.09;52.74;101319.13;4903033;29;20043;-84
2022/12/26 07:24:21;;;;;;;2.55;1.80;;;;;;;-0.58;53.52;101385.31;4918091;29;20409;-82
2022/12/26 07:26:50;;;;;;;14.10;5.07;;;;;;;-0.41;53.11;101377.00;4920267;29;20062;-82
2022/12/26 07:29:16;;;;;;;10.80;4.03;;;;;;;-0.39;52.69;101354.06;4956102;28;20520;-81
2022/12/26 07:31:42;;;;;;;5.85;2.70;;;;;;;-0.17;52.43;101381.84;4954755;28;20047;-81
2022/12/26 07:34:08;;;;;;;7.85;3.58;;;;;;;-0.40;52.82;101326.69;4929803;28;20035;-81
2022/12/26 07:36:34;;;;;;;5.32;2.60;;;;;;;-0.03;53.24;101387.78;4962206;29;20054;-83
2022/12/26 07:39:00;;;;;;;3.45;2.50;;;;;;;-0.14;53.36;101347.84;4955579;29;20451;-81
2022/12/26 07:44:12;;;;;;;3.92;2.30;;;;;;;0.13;52.41;101371.63;4937036;29;20432;-82
2022/12/26 07:46:39;;;;;;;33.88;11.80;;;;;;;-0.01;52.20;101358.03;4942041;29;20051;-82
2022/12/26 07:49:04;;;;;;;19.50;6.97;;;;;;;0.21;52.53;101383.22;4907139;29;20116;-80
2022/12/26 07:51:30;;;;;;;33.70;13.32;;;;;;;-0.08;52.46;101330.31;4921686;29;20433;-82
2022/12/26 07:53:56;;;;;;;29.13;13.25;;;;;;;0.16;51.87;101388.88;4922838;29;20116;-83
2022/12/26 07:56:23;;;;;;;15.05;7.15;;;;;;;-0.03;52.44;101396.31;4928537;29;20398;-84
2022/12/26 07:58:49;;;;;;;20.58;10.25;;;;;;;-0.12;51.39;101390.69;4934060;29;20034;-82
2022/12/26 08:01:16;;;;;;;14.35;8.18;;;;;;;-0.18;51.85;101380.94;4941055;28;20035;-82
2022/12/26 08:03:43;;;;;;;10.95;5.68;;;;;;;-0.08;52.55;101382.34;4957282;28;20035;-81
2022/12/26 08:06:10;;;;;;;4.47;3.00;;;;;;;0.03;52.52;101380.44;4975494;28;20032;-82
2022/12/26 08:08:39;;;;;;;3.38;2.50;;;;;;;-0.30;52.55;101369.97;4988974;28;20051;-83
2022/12/26 08:11:07;;;;;;;4.53;2.90;;;;;;;-0.18;52.21;101391.16;4964500;28;20527;-82
2022/12/26 08:13:34;;;;;;;5.32;2.95;;;;;;;-0.28;52.83;101353.03;4941270;29;20452;-82
2022/12/26 08:16:07;;;;;;;40.65;19.45;;;;;;;-0.01;52.24;101374.25;4955207;28;20058;-81
2022/12/26 08:18:34;;;;;;;6.80;3.58;;;;;;;0.06;52.29;101355.03;4955227;29;20054;-83
2022/12/26 08:21:00;;;;;;;3.33;1.92;;;;;;;0.21;51.96;101369.53;4970576;28;20046;-82
2022/12/26 08:23:26;;;;;;;2.78;1.70;;;;;;;-0.45;52.02;101254.81;4977891;28;20042;-83
2022/12/26 08:25:52;;;;;;;5.50;2.25;;;;;;;0.46;52.12;101394.88;4983103;28;20053;-82
2022/12/26 08:28:18;;;;;;;4.65;2.53;;;;;;;0.04;51.95;101319.91;4947126;29;20043;-81
2022/12/26 08:30:52;;;;;;;5.70;2.58;;;;;;;0.24;52.59;101362.91;4918705;29;20078;-81
2022/12/26 08:33:21;;;;;;;3.30;1.83;;;;;;;-0.18;51.78;101299.03;4924641;29;20044;-82
2022/12/26 08:35:48;;;;;;;5.93;3.30;;;;;;;0.32;51.92;101377.84;4960237;28;20505;-81
2022/12/26 08:38:16;;;;;;;6.65;3.30;;;;;;;0.11;51.18;101374.09;4947899;28;20039;-81
2022/12/26 08:40:42;;;;;;;5.13;2.90;;;;;;;0.11;52.13;101384.34;4939748;29;20043;-81
2022/12/26 08:43:08;;;;;;;4.78;3.13;;;;;;;0.02;51.88;101365.00;4922419;29;20070;-83
2022/12/26 08:45:34;;;;;;;6.97;3.17;;;;;;;0.30;51.74;101395.66;4968373;28;20110;-83
2022/12/26 08:48:03;;;;;;;4.32;2.63;;;;;;;0.17;51.95;101360.78;4922368;29;20044;-82
2022/12/26 08:51:01;;;;;;;4.85;3.38;;;;;;;0.42;52.10;101392.94;5075152;23;20051;-82
2022/12/26 08:53:34;;;;;;;6.82;3.67;;;;;;;-0.37;51.54;101299.66;4957070;28;20039;-83
2022/12/26 08:56:05;;;;;;;6.47;4.30;;;;;;;0.06;51.97;101380.63;4940500;28;20063;-82
2022/12/26 08:58:34;;;;;;;6.30;3.50;;;;;;;0.05;50.47;101409.56;4927698;28;20404;-82
2022/12/26 09:01:14;;;;;;;5.35;2.90;;;;;;;-0.54;52.03;101313.06;4943970;28;20054;-85
2022/12/26 09:03:43;;;;;;;7.35;3.40;;;;;;;-0.83;51.62;101238.06;4945236;28;20050;-83
2022/12/26 09:06:18;;;;;;;5.28;3.13;;;;;;;-1.05;52.06;101236.78;4959648;28;20112;-79
2022/12/26 09:08:44;;;;;;;5.25;2.75;;;;;;;-0.09;52.33;101380.59;4959058;28;20047;-81
2022/12/26 09:11:15;;;;;;;6.82;2.72;;;;;;;-0.10;52.60;101368.59;4958485;28;20042;-81
2022/12/26 09:13:45;;;;;;;4.75;3.10;;;;;;;0.13;52.43;101398.13;4942621;28;20054;-83
2022/12/26 09:16:14;;;;;;;9.35;5.03;;;;;;;0.20;52.39;101394.25;4958302;28;20090;-81
2022/12/26 09:18:43;;;;;;;16.80;8.55;;;;;;;0.06;51.37;101370.38;4959083;28;20153;-81
2022/12/26 09:21:10;;;;;;;4.65;2.60;;;;;;;-0.04;51.71;101393.69;4959093;28;20050;-81
2022/12/26 09:23:37;;;;;;;3.58;1.70;;;;;;;-0.50;51.99;101343.16;4958196;28;20050;-81
2022/12/26 09:26:09;;;;;;;2.55;1.98;;;;;;;0.06;52.55;101395.13;4942728;28;20046;-81
2022/12/26 09:28:35;;;;;;;;;;;;;;;0.33;52.61;101392.41;4958790;28;20057;-80
2022/12/26 09:31:03;;;;;;;3.28;2.03;;;;;;;0.33;51.56;101365.13;4958478;28;19924;-81
2022/12/26 09:33:32;;;;;;;3.90;2.10;;;;;;;0.27;51.67;101398.94;4958818;28;20034;-80
2022/12/26 09:35:58;;;;;;;4.32;1.83;;;;;;;-0.07;50.53;101396.94;4959303;28;20042;-81
2022/12/26 09:38:25;;;;;;;4.25;2.40;;;;;;;-0.10;51.86;101398.44;4944231;28;20050;-83
2022/12/26 09:41:28;;;;;;;4.85;2.72;;;;;;;-0.11;51.74;101384.72;4968053;28;20047;-82
2022/12/26 09:44:18;;;;;;;4.35;2.85;;;;;;;-0.11;51.54;101391.53;4943291;28;20100;-81
2022/12/26 09:47:03;;;;;;;6.90;2.60;;;;;;;0.04;52.06;101382.22;4942536;28;20047;-81
2022/12/26 09:49:37;;;;;;;4.93;3.00;;;;;;;0.14;52.45;101356.38;4943606;28;20520;-79
2022/12/26 09:52:14;;;;;;;5.43;2.20;;;;;;;0.25;51.70;101350.97;4924334;29;20059;-82
2022/12/26 09:54:43;;;;;;;4.65;3.05;;;;;;;0.24;51.87;101360.34;4938745;29;20031;-81
2022/12/26 09:57:19;;;;;;;12.30;6.93;;;;;;;0.09;51.58;101375.69;4922779;28;20425;-80
2022/12/26 09:59:51;;;;;;;7.50;3.67;;;;;;;-0.37;50.99;101348.25;4907754;29;20489;-82
2022/12/26 10:02:22;;;;;;;4.65;3.05;;;;;;;-0.31;52.57;101335.81;4923213;29;20047;-80
2022/12/26 10:04:53;;;;;;;7.03;3.97;;;;;;;-0.17;51.34;101348.56;4955786;28;20039;-82
2022/12/26 10:07:42;;;;;;;4.40;2.67;;;;;;;-0.32;51.19;101369.84;4940671;28;20178;-80
2022/12/26 10:10:17;;;;;;;10.98;5.20;;;;;;;-0.59;51.01;101374.19;4924668;28;20054;-82
2022/12/26 10:12:50;;;;;;;;;;;;;;;-0.76;51.89;101368.00;4923230;28;20058;-80
2022/12/26 10:15:49;;;;;;;4.90;2.42;;;;;;;-0.96;51.26;101367.66;4958909;28;19918;-82
2022/12/26 10:18:32;;;;;;;6.55;2.40;;;;;;;-1.12;52.64;101350.50;4957875;28;20043;-80
2022/12/26 10:21:16;;;;;;;8.55;3.55;;;;;;;-1.06;51.89;101361.09;4958794;28;20075;-81
2022/12/26 10:23:59;;;;;;;8.60;4.22;;;;;;;-1.31;52.10;101340.78;4928293;28;20047;-80
2022/12/26 10:27:13;;;;;;;9.48;4.53;;;;;;;-1.13;51.87;101370.81;4925417;28;20038;-82
2022/12/26 10:30:40;;;;;;;6.28;3.08;;;;;;;-2.31;52.17;101197.34;4898222;29;20047;-83
2022/12/26 10:34:06;;;;;;;;;;;;;;;;;;;;;
2022/12/26 10:42:00;;;;;;;3.33;2.55;;;;;;;-2.51;51.59;101139.97;4940306;28;20035;-83
2022/12/26 10:45:18;;;;;;;4.60;2.42;;;;;;;-1.13;53.70;101350.38;4942546;28;20500;-81
2022/12/26 10:48:16;;;;;;;3.85;2.35;;;;;;;-0.74;53.28;101343.44;4926009;28;20035;-82
2022/12/26 10:50:48;;;;;;;4.30;2.40;;;;;;;-0.96;53.32;101265.44;4937943;28;20219;-81
2022/12/26 10:53:26;;;;;;;;;;;;;;;;;;;;;
2022/12/26 10:55:59;;;;;;;5.15;2.80;;;;;;;-0.77;52.84;101279.31;4946697;29;20039;-79
2022/12/26 10:58:42;;;;;;;6.60;3.35;;;;;;;-0.69;52.87;101313.06;4938589;28;20038;-81
2022/12/26 11:01:27;;;;;;;7.03;4.15;;;;;;;-0.59;52.42;101348.59;4921507;28;20039;-80
2022/12/26 11:03:59;;;;;;;8.27;4.20;;;;;;;-0.63;53.04;101368.00;4909188;28;20043;-81
2022/12/26 11:06:30;;;;;;;6.53;4.07;;;;;;;-0.86;52.43;101276.22;4936474;29;20413;-82
2022/12/26 11:08:56;;;;;;;5.65;3.85;;;;;;;-0.55;52.52;101331.81;4937665;29;20432;-83
2022/12/26 11:11:44;;;;;;;5.28;3.22;;;;;;;-1.03;52.49;101285.41;4954645;28;20043;-80
2022/12/26 11:14:46;;;;;;;6.00;3.90;;;;;;;-0.88;52.86;101349.38;4954057;28;20059;-79
2022/12/26 11:17:23;;;;;;;8.25;4.13;;;;;;;-1.14;53.10;101306.06;4939317;29;20054;-77
2022/12/26 11:20:37;;;;;;;5.63;3.42;;;;;;;-0.85;53.67;101319.75;4936233;28;20452;-76
2022/12/26 11:23:31;;;;;;;9.73;5.13;;;;;;;-0.93;53.42;101277.53;4902889;28;20513;-80
2022/12/26 11:26:17;;;;;;;9.13;4.45;;;;;;;-1.13;53.32;101220.06;4890223;28;20047;-76
2022/12/26 11:29:05;;;;;;;12.02;5.50;;;;;;;-0.47;52.56;101351.03;4953899;28;20133;-77
2022/12/26 11:31:52;;;;;;;9.27;6.07;;;;;;;-0.56;52.73;101355.59;4937876;28;20039;-81
2022/12/26 11:34:56;;;;;;;6.25;4.03;;;;;;;-1.01;52.43;101273.59;4936731;28;20515;-76
2022/12/26 11:37:45;;;;;;;9.27;5.00;;;;;;;-0.86;51.66;101360.59;4910075;28;20059;-80
2022/12/26 11:41:30;;;;;;;9.50;5.65;;;;;;;-1.64;52.17;101258.66;4936997;28;20428;-75
2022/12/26 11:43:27;;;;;;;8.15;4.55;;;;;;;-1.59;52.91;101292.16;4924404;28;20047;-81
2022/12/26 11:50:06;;;;;;;7.68;4.30;;;;;;;-1.02;53.99;101339.19;4947397;28;20287;-81
2022/12/26 11:52:41;;;;;;;8.07;5.43;;;;;;;-1.09;53.28;101348.09;4940114;28;20150;-79
2022/12/26 11:55:26;;;;;;;9.40;4.40;;;;;;;-1.17;52.18;101349.31;4938809;29;20050;-79
2022/12/26 11:58:24;;;;;;;6.82;4.25;;;;;;;-1.30;52.86;101346.75;4939118;28;20050;-81
2022/12/26 12:00:53;;;;;;;11.32;5.70;;;;;;;-1.46;53.06;101350.00;4947804;28;20557;-80
2022/12/26 12:03:29;;;;;;;11.45;5.90;;;;;;;-1.71;54.21;101294.78;4925176;28;20098;-81
2022/12/26 12:06:19;;;;;;;14.85;5.75;;;;;;;-1.26;54.08;101359.84;4924153;28;20050;-86
2022/12/26 12:09:06;;;;;;;8.75;4.68;;;;;;;-1.33;53.75;101355.09;4955085;28;20039;-81
2022/12/26 12:11:35;;;;;;;8.75;4.13;;;;;;;-1.46;52.73;101350.88;4960419;28;20143;-83
2022/12/26 12:14:24;;;;;;;8.57;3.30;;;;;;;-1.57;53.89;101356.97;4954642;28;20071;-81
2022/12/26 12:17:38;;;;;;;7.80;2.92;;;;;;;-1.54;54.28;101363.16;4851800;29;20049;-82
2022/12/26 12:20:30;;;;;;;6.28;3.90;;;;;;;-1.66;53.41;101354.72;4921441;28;20051;-80
2022/12/26 12:22:57;;;;;;;8.25;4.15;;;;;;;-1.63;54.20;101351.47;4924654;28;20449;-86
2022/12/26 12:25:47;;;;;;;7.65;3.38;;;;;;;-1.67;53.03;101352.94;4941933;28;20141;-83
2022/12/26 12:28:20;;;;;;;7.78;4.70;;;;;;;-1.75;53.64;101356.63;4925516;29;20464;-81
2022/12/26 12:31:23;;;;;;;10.38;4.35;;;;;;;-1.87;54.57;101346.50;4957320;28;20051;-81
2022/12/26 12:34:07;;;;;;;6.53;3.80;;;;;;;-1.91;54.11;101354.72;4940104;29;20043;-81
2022/12/26 12:36:44;;;;;;;7.47;3.90;;;;;;;-2.13;54.74;101302.28;4924461;28;20118;-81
2022/12/26 12:39:18;;;;;;;10.85;4.00;;;;;;;-2.03;54.38;101334.38;4940072;28;20043;-81
2022/12/26 12:42:14;;;;;;;6.80;4.10;;;;;;;-1.98;54.12;101353.44;4940548;28;20043;-80
2022/12/26 12:45:04;;;;;;;7.68;3.80;;;;;;;-1.92;54.35;101348.75;4941737;28;20054;-81
2022/12/26 12:47:55;;;;;;;4.68;2.67;;;;;;;-2.19;53.73;101312.97;4925754;29;20047;-83
2022/12/26 12:50:59;;;;;;;7.13;3.38;;;;;;;-2.23;54.17;101358.56;4940543;28;20058;-81
2022/12/26 12:53:34;;;;;;;6.38;3.58;;;;;;;-2.42;53.83;101360.75;4923784;28;20079;-81
2022/12/26 12:56:32;;;;;;;5.88;2.60;;;;;;;-2.60;55.01;101342.50;4958925;28;20043;-79
2022/12/26 12:59:19;;;;;;;4.47;2.63;;;;;;;-2.31;54.59;101358.94;4931383;28;20110;-82
2022/12/26 13:01:54;;;;;;;6.32;3.05;;;;;;;-2.22;54.86;101356.13;4940501;28;20071;-81
2022/12/26 13:04:28;;;;;;;8.65;2.92;;;;;;;-2.19;54.69;101341.03;4939484;29;20484;-80
2022/12/26 13:07:24;;;;;;;6.72;3.28;;;;;;;-2.22;55.40;101353.56;4924419;29;20035;-81
2022/12/26 13:09:58;;;;;;;6.55;4.00;;;;;;;-2.04;55.47;101348.81;4908780;29;20137;-82
2022/12/26 13:12:42;;;;;;;8.38;3.65;;;;;;;-1.94;54.85;101342.66;4924547;29;20571;-83
2022/12/26 13:15:54;;;;;;;5.40;2.90;;;;;;;-2.48;54.09;101265.09;4912614;28;20039;-80
2022/12/26 13:18:23;;;;;;;4.75;2.78;;;;;;;-2.54;54.17;101305.47;4939882;29;20547;-81
2022/12/26 13:20:54;;;;;;;5.22;2.83;;;;;;;-2.84;55.37;101244.88;4951179;28;20470;-83
2022/12/26 13:26:29;;;;;;;7.47;3.60;;;;;;;-1.94;54.59;101347.78;4956362;28;20086;-80
2022/12/26 13:29:37;;;;;;;7.28;3.70;;;;;;;-2.09;54.29;101341.63;4938549;29;20043;-80
2022/12/26 13:32:13;;;;;;;7.57;3.95;;;;;;;-2.27;55.38;101347.25;4938831;28;20043;-81
2022/12/26 13:34:38;;;;;;;7.85;4.78;;;;;;;-2.42;55.16;101330.16;4938760;29;20035;-83
2022/12/26 13:37:04;;;;;;;8.90;4.00;;;;;;;-2.99;55.25;101247.25;4939022;28;20087;-80
2022/12/26 13:39:33;;;;;;;6.30;3.53;;;;;;;-2.30;55.67;101345.41;4939176;28;20130;-82
2022/12/26 13:44:53;;;;;;;5.60;3.30;;;;;;;-2.65;55.39;101305.66;4956716;28;20134;-82
2022/12/26 13:47:34;;;;;;;7.53;3.58;;;;;;;-2.46;55.59;101352.78;4961856;28;20050;-79
2022/12/26 13:50:43;;;;;;;6.25;3.50;;;;;;;-2.48;55.66;101356.88;4923807;29;20411;-82
2022/12/26 13:53:30;;;;;;;7.47;3.95;;;;;;;-2.78;55.86;101296.25;4941185;29;20037;-83
2022/12/26 13:56:32;;;;;;;8.73;4.05;;;;;;;-2.51;55.26;101349.03;4947105;29;20559;-82
2022/12/26 14:09:04;;;;;;;12.95;4.93;;;;;;;-2.61;55.84;101352.59;4863539;29;20041;-80
2022/12/26 14:12:10;;;;;;;10.25;5.05;;;;;;;-2.69;55.82;101353.72;4848239;29;20045;-83
2022/12/26 14:15:55;;;;;;;7.25;4.20;;;;;;;-2.80;56.23;101350.44;4942807;28;20521;-81
2022/12/26 14:22:35;;;;;;;5.63;3.50;;;;;;;-2.51;56.60;101349.91;4935650;28;20039;-83
2022/12/26 14:25:17;;;;;;;6.60;3.75;;;;;;;-2.61;56.77;101309.28;4944828;28;20133;-82
2022/12/26 14:28:12;;;;;;;7.95;3.80;;;;;;;-2.34;56.78;101345.97;4948034;29;20050;-79
2022/12/26 14:31:17;;;;;;;5.95;3.38;;;;;;;-3.16;55.98;101212.09;4948717;28;20043;-81
2022/12/26 14:34:17;;;;;;;6.72;3.90;;;;;;;-2.61;56.15;101342.41;4918733;28;20398;-81
2022/12/26 14:36:56;;;;;;;6.28;3.85;;;;;;;-3.35;56.70;101215.91;4941158;28;20042;-79
2022/12/26 14:39:51;;;;;;;6.45;3.72;;;;;;;-2.66;56.66;101338.66;4969023;28;20070;-82
2022/12/26 14:45:27;;;;;;;8.63;4.50;;;;;;;-2.73;57.76;101342.44;4967922;28;20040;-80
2022/12/26 14:47:53;;;;;;;6.95;5.15;;;;;;;-2.73;57.87;101340.75;4948294;29;20039;-81
2022/12/26 14:50:44;;;;;;;6.03;3.08;;;;;;;-2.93;57.81;101315.56;4966507;28;20046;-80
2022/12/26 14:53:31;;;;;;;7.15;3.40;;;;;;;-3.07;57.97;101300.22;4957197;29;20043;-80
2022/12/26 14:56:02;;;;;;;5.25;3.53;;;;;;;-2.78;59.00;101331.94;4958769;29;20027;-78